Time;durP1;ratioP1;P1;durP2;ratioP2;P2;SDS_P1;SDS_P2;PMS_P1;PMS_P2;Temp;Humidity;BMP_temperature;BMP_pressure;BME280_temperature;BME280_humidity;BME280_pressure;Samples;Min_cycle;Max_cycle;Signal;HPM_P1;HPM_P2
2022/11/01 03:48:10;;;;;;;;;;;12.50;99.90;;;;;;2020567;23;88278;-73
2022/11/01 03:50:37;;;;;;;108.30;15.07;;;12.50;99.90;;;;;;4885445;28;86288;-75
2022/11/01 03:53:02;;;;;;;97.20;18.15;;;12.50;99.90;;;;;;4887225;28;87140;-73
2022/11/01 03:55:28;;;;;;;66.38;15.80;;;12.50;99.90;;;;;;4886957;28;87492;-72
2022/11/01 03:57:56;;;;;;;213.57;21.92;;;12.50;99.90;;;;;;4888432;28;86880;-73
2022/11/01 04:00:27;;;;;;;76.35;15.52;;;12.60;99.90;;;;;;4887618;28;86836;-73
2022/11/01 04:02:54;;;;;;;41.72;15.38;;;12.60;99.90;;;;;;4886622;28;86999;-72
2022/11/01 04:05:22;;;;;;;71.93;14.20;;;12.60;99.90;;;;;;4884652;28;88294;-71
2022/11/01 04:07:48;;;;;;;68.63;13.48;;;12.60;99.90;;;;;;4888885;28;87910;-71
2022/11/01 04:10:14;;;;;;;105.78;15.73;;;12.60;99.90;;;;;;4884563;28;86792;-71
2022/11/01 04:12:42;;;;;;;37.50;13.38;;;12.60;99.90;;;;;;4884711;28;86876;-73
2022/11/01 04:21:00;;;;;;;171.90;17.42;;;12.50;99.90;;;;;;4882025;28;86876;-73
2022/11/01 04:23:26;;;;;;;153.50;14.90;;;12.50;99.90;;;;;;4885613;28;86253;-71
2022/11/01 04:25:52;;;;;;;33.55;11.27;;;12.50;99.90;;;;;;4888135;28;86957;-70
2022/11/01 04:28:17;;;;;;;112.72;12.00;;;12.40;99.90;;;;;;4884454;28;86957;-71
2022/11/01 04:30:43;;;;;;;136.15;12.85;;;12.40;99.90;;;;;;4884941;28;87255;-72
2022/11/01 04:33:09;;;;;;;87.50;11.57;;;12.30;99.90;;;;;;4886581;28;86470;-71
2022/11/01 04:35:36;;;;;;;115.35;13.73;;;12.20;99.90;;;;;;4883503;28;87448;-71
2022/11/01 04:38:03;;;;;;;54.53;10.52;;;12.20;99.90;;;;;;4885889;28;86292;-71
2022/11/01 04:40:29;;;;;;;115.43;14.43;;;12.20;99.90;;;;;;4886810;28;87846;-71
2022/11/01 04:42:55;;;;;;;82.75;13.75;;;12.20;99.90;;;;;;4888522;28;86659;-72
2022/11/01 04:45:21;;;;;;;130.10;15.70;;;12.20;99.90;;;;;;4886355;28;88428;-74
2022/11/01 04:47:51;;;;;;;111.32;14.55;;;12.20;99.90;;;;;;4876255;28;86930;-71
2022/11/01 04:50:20;;;;;;;193.18;16.65;;;12.30;99.90;;;;;;4864605;28;87787;-72
2022/11/01 04:52:47;;;;;;;278.55;20.52;;;12.30;99.90;;;;;;4872321;28;87065;-71
2022/11/01 04:55:13;;;;;;;292.45;18.65;;;12.30;99.90;;;;;;4863933;28;88203;-71
2022/11/01 04:57:39;;;;;;;239.73;15.73;;;12.30;99.90;;;;;;4864844;28;88034;-71
2022/11/01 05:00:06;;;;;;;120.10;14.35;;;12.30;99.90;;;;;;4861761;28;87062;-73
2022/11/01 05:02:32;;;;;;;254.75;17.23;;;12.40;99.90;;;;;;4858556;28;87007;-72
2022/11/01 05:04:58;;;;;;;312.48;19.48;;;12.40;99.90;;;;;;4873697;28;87253;-73
2022/11/01 05:07:23;;;;;;;192.50;20.63;;;12.40;99.90;;;;;;4866275;28;86451;-73
2022/11/01 05:09:49;;;;;;;137.65;16.00;;;12.40;99.90;;;;;;4866216;28;87079;-73
2022/11/01 05:12:15;;;;;;;81.75;15.60;;;12.40;99.90;;;;;;4869445;28;87002;-72
2022/11/01 05:14:40;;;;;;;139.77;20.02;;;12.50;99.90;;;;;;4867438;28;87600;-71
2022/11/01 05:17:06;;;;;;;130.10;15.82;;;12.50;99.90;;;;;;4868503;28;88125;-73
2022/11/01 05:19:31;;;;;;;56.03;16.42;;;12.60;99.90;;;;;;4859780;28;88806;-72
2022/11/01 05:21:58;;;;;;;74.82;20.35;;;12.60;99.90;;;;;;4868727;28;87093;-71
2022/11/01 05:24:24;;;;;;;54.90;16.45;;;12.70;99.90;;;;;;4871454;28;88230;-73
2022/11/01 05:26:49;;;;;;;55.25;18.15;;;12.80;99.90;;;;;;4869242;28;87161;-73
2022/11/01 05:29:15;;;;;;;46.45;17.20;;;12.90;99.90;;;;;;4868722;28;86937;-72
2022/11/01 05:31:41;;;;;;;51.10;15.15;;;13.00;99.90;;;;;;4872480;28;86781;-71
2022/11/01 05:34:07;;;;;;;41.90;17.20;;;13.00;99.90;;;;;;4858794;28;86981;-74
2022/11/01 05:36:32;;;;;;;31.85;14.65;;;13.00;99.90;;;;;;4864680;28;86845;-72
2022/11/01 05:38:58;;;;;;;140.73;17.92;;;13.00;99.90;;;;;;4872851;28;86273;-73
2022/11/01 05:41:25;;;;;;;45.85;15.52;;;13.00;99.90;;;;;;4869651;28;86359;-72
2022/11/01 05:43:51;;;;;;;78.63;19.73;;;13.10;99.90;;;;;;4865629;28;87635;-71
2022/11/01 05:46:16;;;;;;;139.05;23.60;;;13.10;99.90;;;;;;4867550;28;87836;-71
2022/11/01 05:48:42;;;;;;;41.30;16.58;;;13.10;99.90;;;;;;4861633;28;88136;-71
2022/11/01 05:51:09;;;;;;;54.55;19.30;;;13.20;99.90;;;;;;4868668;28;87107;-73
2022/11/01 05:53:35;;;;;;;43.72;16.98;;;13.20;99.90;;;;;;4873288;28;86632;-71
2022/11/01 05:56:00;;;;;;;67.63;15.35;;;13.20;99.90;;;;;;4870034;28;87612;-71
2022/11/01 05:58:27;;;;;;;53.90;16.75;;;13.20;99.90;;;;;;4874262;28;86606;-71
2022/11/01 06:01:00;;;;;;;70.53;17.80;;;13.20;99.90;;;;;;4874362;28;86037;-75
2022/11/01 06:03:26;;;;;;;98.03;20.83;;;13.20;99.90;;;;;;4873591;28;87489;-71
2022/11/01 06:05:52;;;;;;;111.03;18.15;;;13.20;99.90;;;;;;4874584;28;89265;-71
2022/11/01 06:08:18;;;;;;;52.20;17.05;;;13.10;99.90;;;;;;4869508;28;88191;-73
2022/11/01 06:10:43;;;;;;;71.72;18.13;;;13.10;99.90;;;;;;4866687;28;88008;-71
2022/11/01 06:13:09;;;;;;;55.15;17.40;;;13.00;99.90;;;;;;4860082;28;88333;-71
2022/11/01 06:15:35;;;;;;;50.30;17.98;;;13.00;99.90;;;;;;4870869;28;87069;-70
2022/11/01 06:18:01;;;;;;;39.20;14.75;;;13.00;99.90;;;;;;4877289;28;86455;-72
2022/11/01 06:20:28;;;;;;;59.30;19.85;;;13.00;99.90;;;;;;4864729;28;87249;-72
2022/11/01 06:22:55;;;;;;;39.60;17.55;;;13.00;99.90;;;;;;4872463;28;87346;-73
2022/11/01 06:25:21;;;;;;;35.95;16.75;;;12.90;99.90;;;;;;4872547;28;86934;-72
2022/11/01 06:27:47;;;;;;;30.85;15.65;;;13.00;99.90;;;;;;4870967;28;86768;-71
2022/11/01 06:30:13;;;;;;;37.40;17.15;;;12.90;99.90;;;;;;4871145;28;86331;-70
2022/11/01 06:32:38;;;;;;;37.88;17.40;;;13.00;99.90;;;;;;4867962;28;90095;-73
2022/11/01 06:35:04;;;;;;;30.73;15.57;;;13.00;99.90;;;;;;4870351;28;87220;-71
2022/11/01 06:37:30;;;;;;;46.13;20.42;;;13.00;99.90;;;;;;4869965;28;86762;-71
2022/11/01 06:39:56;;;;;;;29.33;16.75;;;13.00;99.90;;;;;;4865435;28;86908;-72
2022/11/01 06:42:22;;;;;;;33.78;16.48;;;13.10;99.90;;;;;;4862828;28;87087;-71
2022/11/01 06:44:48;;;;;;;32.95;16.42;;;13.10;99.90;;;;;;4868989;28;86837;-73
2022/11/01 06:47:13;;;;;;;37.65;17.85;;;13.10;99.90;;;;;;4869983;28;87279;-73
2022/11/01 06:49:39;;;;;;;44.95;20.33;;;13.00;99.90;;;;;;4868474;28;86177;-72
2022/11/01 06:52:06;;;;;;;33.08;17.40;;;13.10;99.90;;;;;;4866261;28;87615;-72
2022/11/01 06:54:32;;;;;;;32.30;16.65;;;13.00;99.90;;;;;;4868529;28;87006;-72
2022/11/01 06:56:58;;;;;;;35.75;17.85;;;13.10;99.90;;;;;;4868928;28;87736;-73
2022/11/01 06:59:23;;;;;;;35.33;17.50;;;13.10;99.90;;;;;;4871092;28;87177;-71
2022/11/01 07:01:50;;;;;;;35.60;17.45;;;13.20;99.90;;;;;;4874663;28;86685;-70
2022/11/01 07:04:16;;;;;;;32.80;17.25;;;13.20;99.90;;;;;;4868414;28;86807;-73
2022/11/01 07:06:42;;;;;;;36.80;17.83;;;13.20;99.90;;;;;;4863887;28;86700;-70
2022/11/01 07:09:09;;;;;;;36.88;16.48;;;13.20;99.90;;;;;;4863787;28;86764;-70
2022/11/01 07:11:34;;;;;;;40.85;18.85;;;13.20;99.90;;;;;;4869179;28;86897;-71
2022/11/01 07:14:00;;;;;;;37.30;17.58;;;13.30;99.90;;;;;;4874351;28;86423;-71
2022/11/01 07:16:26;;;;;;;31.92;16.65;;;13.30;99.90;;;;;;4868530;28;86906;-72
2022/11/01 07:18:51;;;;;;;49.63;18.55;;;13.40;99.90;;;;;;4871197;28;86260;-71
2022/11/01 07:21:17;;;;;;;29.83;15.68;;;13.50;99.90;;;;;;4864592;28;87733;-72
2022/11/01 07:23:43;;;;;;;27.83;14.75;;;13.50;99.90;;;;;;4869346;28;87959;-72
2022/11/01 07:26:08;;;;;;;31.58;16.13;;;13.60;99.90;;;;;;4874535;28;86330;-71
2022/11/01 07:28:34;;;;;;;35.03;16.60;;;13.60;99.90;;;;;;4873467;28;87001;-72
2022/11/01 07:31:00;;;;;;;26.13;14.23;;;13.70;99.90;;;;;;4870590;28;87267;-71
2022/11/01 07:33:26;;;;;;;27.55;15.50;;;13.80;99.90;;;;;;4868563;28;87504;-73
2022/11/01 07:35:52;;;;;;;26.85;14.20;;;13.80;99.90;;;;;;4872416;28;87118;-72
2022/11/01 07:38:18;;;;;;;25.63;14.63;;;13.80;99.90;;;;;;4866298;28;86149;-72
2022/11/01 07:40:48;;;;;;;27.70;14.52;;;13.80;99.90;;;;;;4870712;28;87224;-71
2022/11/01 07:43:14;;;;;;;;;;;13.90;99.90;;;;;;4865648;28;88989;-72
2022/11/01 07:45:40;;;;;;;20.88;11.65;;;13.90;99.90;;;;;;4876999;28;87195;-70
2022/11/01 07:48:11;;;;;;;24.55;13.07;;;13.90;99.90;;;;;;4870543;28;86673;-71
2022/11/01 07:50:39;;;;;;;23.33;13.32;;;14.00;99.90;;;;;;4869481;28;86962;-71
2022/11/01 07:53:10;;;;;;;21.85;12.65;;;14.10;99.90;;;;;;4868958;28;87019;-73
2022/11/01 07:55:37;;;;;;;16.08;7.95;;;14.10;99.90;;;;;;4873264;28;86857;-70
2022/11/01 07:58:04;;;;;;;19.52;8.40;;;14.20;99.90;;;;;;4870802;28;86359;-72
2022/11/01 08:00:30;;;;;;;15.23;8.18;;;14.30;99.90;;;;;;4869802;28;86628;-72
2022/11/01 08:03:13;;;;;;;16.55;8.20;;;14.30;99.90;;;;;;4865128;28;87845;-71
2022/11/01 08:05:40;;;;;;;12.10;5.03;;;14.50;99.90;;;;;;4876591;28;86304;-72
2022/11/01 08:08:06;;;;;;;11.27;5.75;;;14.70;99.90;;;;;;4869027;28;86421;-71
2022/11/01 08:10:33;;;;;;;10.95;6.03;;;14.90;99.90;;;;;;4874067;28;88554;-70
2022/11/01 08:13:20;;;;;;;16.67;7.07;;;15.00;99.90;;;;;;4874770;28;87177;-71
2022/11/01 08:15:47;;;;;;;16.52;7.07;;;15.20;99.90;;;;;;4871686;28;87041;-73
2022/11/01 08:18:14;;;;;;;10.75;5.90;;;15.40;99.90;;;;;;4870466;28;87252;-72
2022/11/01 08:20:40;;;;;;;9.80;5.57;;;15.50;99.90;;;;;;4875069;28;87230;-71
2022/11/01 08:23:06;;;;;;;11.30;5.65;;;15.60;99.90;;;;;;4863094;28;86586;-71
2022/11/01 08:25:32;;;;;;;10.27;5.88;;;15.70;99.90;;;;;;4872380;28;87008;-71
2022/11/01 08:28:12;;;;;;;14.50;5.40;;;15.90;99.90;;;;;;4871628;28;87244;-74
2022/11/01 08:30:40;;;;;;;8.77;4.60;;;16.10;99.90;;;;;;4870503;28;87207;-72
2022/11/01 08:33:06;;;;;;;11.52;5.05;;;16.30;99.90;;;;;;4871890;28;86614;-73
2022/11/01 08:35:32;;;;;;;11.70;4.82;;;16.40;99.90;;;;;;4872319;28;87768;-72
2022/11/01 08:37:58;;;;;;;11.70;4.63;;;16.70;99.90;;;;;;4870932;28;87118;-71
2022/11/01 08:40:27;;;;;;;9.75;4.38;;;16.90;98.10;;;;;;4871353;28;87864;-69
2022/11/01 08:42:53;;;;;;;10.57;4.53;;;17.10;98.30;;;;;;4866354;28;86994;-70
2022/11/01 08:45:19;;;;;;;8.07;4.38;;;17.50;98.30;;;;;;4867802;28;86972;-69
2022/11/01 08:47:44;;;;;;;8.82;4.68;;;17.80;96.40;;;;;;4871500;28;86950;-72
2022/11/01 08:50:13;;;;;;;11.25;4.88;;;18.30;95.80;;;;;;4867611;28;87937;-70
2022/11/01 08:52:39;;;;;;;12.23;5.75;;;18.90;94.40;;;;;;4867458;28;86209;-71
2022/11/01 08:55:06;;;;;;;10.93;4.70;;;19.40;93.40;;;;;;4871122;28;86260;-72
2022/11/01 08:57:32;;;;;;;15.02;5.05;;;19.90;90.60;;;;;;4869207;28;87978;-74
2022/11/01 08:59:57;;;;;;;12.07;5.15;;;20.10;89.10;;;;;;4865276;28;87939;-72
2022/11/01 09:02:23;;;;;;;10.52;5.10;;;20.10;88.80;;;;;;4867296;28;88201;-71
2022/11/01 09:04:49;;;;;;;12.25;5.07;;;20.00;89.90;;;;;;4872565;28;86759;-71
2022/11/01 09:07:14;;;;;;;10.80;5.28;;;19.90;89.50;;;;;;4870242;28;86499;-72
2022/11/01 09:09:40;;;;;;;10.65;5.45;;;19.90;90.50;;;;;;4870180;28;86776;-73
2022/11/01 09:12:06;;;;;;;8.35;4.68;;;19.90;89.60;;;;;;4867761;28;86299;-73
2022/11/01 09:14:32;;;;;;;9.70;4.65;;;19.90;87.20;;;;;;4867583;28;87055;-72
2022/11/01 09:16:58;;;;;;;11.43;5.15;;;19.80;88.20;;;;;;4873462;28;86193;-70
2022/11/01 09:19:24;;;;;;;10.85;6.00;;;19.70;88.90;;;;;;4871753;28;87208;-73
2022/11/01 09:21:49;;;;;;;14.80;6.30;;;19.60;88.40;;;;;;4872793;28;87097;-73
2022/11/01 09:24:16;;;;;;;14.48;6.50;;;19.50;88.10;;;;;;4860403;28;87961;-74
2022/11/01 09:26:42;;;;;;;13.27;6.53;;;19.40;88.00;;;;;;4869093;28;88004;-72
2022/11/01 09:29:08;;;;;;;11.95;5.55;;;19.30;87.60;;;;;;4871339;28;89007;-71
2022/11/01 09:31:34;;;;;;;19.20;6.95;;;19.30;87.70;;;;;;4869473;28;88377;-72
2022/11/01 09:33:59;;;;;;;14.02;6.20;;;19.30;86.30;;;;;;4867978;28;87598;-72
2022/11/01 09:36:27;;;;;;;19.77;6.72;;;19.30;86.30;;;;;;4872386;28;86721;-73
2022/11/01 09:38:54;;;;;;;11.57;5.10;;;19.30;86.10;;;;;;4869053;28;86769;-72
2022/11/01 09:41:29;;;;;;;8.63;3.97;;;19.40;85.60;;;;;;4870211;28;86288;-72
2022/11/01 09:43:56;;;;;;;9.80;3.80;;;19.30;85.50;;;;;;4869494;28;87061;-72
2022/11/01 09:46:25;;;;;;;16.70;5.28;;;19.30;86.50;;;;;;4877199;28;86408;-72
2022/11/01 09:48:52;;;;;;;18.95;5.30;;;19.20;88.70;;;;;;4875735;28;88048;-72
2022/11/01 09:51:22;;;;;;;9.90;4.20;;;19.10;89.10;;;;;;4878642;28;87007;-73
2022/11/01 09:53:52;;;;;;;10.55;4.18;;;19.20;87.40;;;;;;4867894;28;86566;-72
2022/11/01 09:56:26;;;;;;;12.70;3.72;;;19.30;87.40;;;;;;4875680;28;87158;-71
2022/11/01 09:59:10;;;;;;;8.93;3.85;;;19.20;85.80;;;;;;4876587;28;87311;-71
2022/11/01 10:01:54;;;;;;;9.55;4.22;;;19.20;85.60;;;;;;4876420;28;86361;-72
2022/11/01 10:04:57;;;;;;;10.10;4.10;;;19.10;88.70;;;;;;4877499;28;87172;-73
2022/11/01 10:07:26;;;;;;;9.35;4.10;;;19.30;88.40;;;;;;4876163;28;86346;-72
2022/11/01 10:10:25;;;;;;;14.43;4.97;;;19.40;88.30;;;;;;4856555;28;87970;-72
2022/11/01 10:13:05;;;;;;;13.07;4.85;;;19.50;87.20;;;;;;4861220;28;87071;-70
2022/11/01 10:15:37;;;;;;;9.93;5.20;;;19.70;85.80;;;;;;4873824;28;87672;-71
2022/11/01 10:18:27;;;;;;;9.60;4.78;;;19.80;86.00;;;;;;4875722;28;87545;-72
2022/11/01 10:20:58;;;;;;;11.45;4.60;;;20.00;83.80;;;;;;4875534;28;87224;-72
2022/11/01 10:23:41;;;;;;;12.63;4.70;;;20.20;81.20;;;;;;4876076;28;87002;-71
2022/11/01 10:26:12;;;;;;;6.93;3.95;;;20.30;80.70;;;;;;4869397;28;86881;-72
2022/11/01 10:28:53;;;;;;;7.47;3.60;;;20.40;80.80;;;;;;4877706;28;86826;-73
2022/11/01 10:31:23;;;;;;;9.13;3.78;;;20.40;78.20;;;;;;4872924;28;87506;-74
2022/11/01 10:34:26;;;;;;;13.43;4.38;;;20.20;80.10;;;;;;4877693;28;86973;-70
2022/11/01 10:36:59;;;;;;;9.48;3.50;;;20.30;80.10;;;;;;4864373;28;86535;-70
2022/11/01 10:39:41;;;;;;;7.05;2.78;;;20.30;78.90;;;;;;4876800;28;86976;-73
2022/11/01 10:42:11;;;;;;;8.85;2.65;;;20.20;78.90;;;;;;4873353;28;87982;-70
2022/11/01 10:44:41;;;;;;;7.22;2.50;;;20.30;77.90;;;;;;4880075;28;87104;-71
2022/11/01 10:47:14;;;;;;;7.32;3.00;;;20.30;77.60;;;;;;4878904;28;86438;-71
2022/11/01 10:49:47;;;;;;;8.23;2.78;;;20.10;76.30;;;;;;4875920;28;86853;-72
2022/11/01 10:52:16;;;;;;;7.95;2.85;;;19.90;77.90;;;;;;4881533;28;87030;-70
2022/11/01 10:54:43;;;;;;;7.38;2.35;;;20.00;77.20;;;;;;4878674;28;86347;-72
2022/11/01 10:57:37;;;;;;;7.32;2.78;;;20.00;77.30;;;;;;4879959;28;87073;-71
2022/11/01 11:00:05;;;;;;;7.28;2.13;;;20.00;76.20;;;;;;4875349;28;85897;-72
2022/11/01 11:02:43;;;;;;;7.18;2.35;;;20.00;76.40;;;;;;4883523;28;87246;-71
2022/11/01 11:05:13;;;;;;;6.22;2.40;;;20.00;77.10;;;;;;4878176;28;87972;-74
2022/11/01 11:07:40;;;;;;;6.85;2.28;;;20.00;77.10;;;;;;4880315;28;87971;-71
2022/11/01 11:10:19;;;;;;;6.22;2.22;;;20.00;77.20;;;;;;4880862;28;87148;-69
2022/11/01 11:12:47;;;;;;;9.07;2.25;;;20.00;76.60;;;;;;4879869;28;87189;-71
2022/11/01 11:15:25;;;;;;;6.40;1.83;;;20.00;76.90;;;;;;4881020;28;87289;-72
2022/11/01 11:17:56;;;;;;;6.15;1.40;;;20.00;75.30;;;;;;4881526;28;86216;-72
2022/11/01 11:20:29;;;;;;;6.10;1.85;;;20.00;76.10;;;;;;4878027;28;87350;-72
2022/11/01 11:22:56;;;;;;;4.90;1.48;;;20.00;74.90;;;;;;4880673;28;87263;-69
2022/11/01 11:25:32;;;;;;;6.13;1.08;;;20.00;74.20;;;;;;4876417;28;86163;-75
2022/11/01 11:27:58;;;;;;;11.27;2.58;;;20.10;74.20;;;;;;4879746;28;86779;-73
2022/11/01 11:30:31;;;;;;;5.53;1.92;;;20.20;73.50;;;;;;4882153;28;86721;-72
2022/11/01 11:32:58;;;;;;;8.10;1.48;;;20.10;75.40;;;;;;4877806;28;89103;-72
2022/11/01 11:35:27;;;;;;;7.65;1.23;;;20.20;72.80;;;;;;4880824;28;87742;-71
2022/11/01 11:38:00;;;;;;;8.38;1.60;;;20.10;73.10;;;;;;4881212;28;87045;-71
2022/11/01 11:40:44;;;;;;;15.02;2.20;;;20.30;73.00;;;;;;4879593;28;86275;-70
2022/11/01 11:43:32;;;;;;;5.75;1.40;;;20.40;76.10;;;;;;4879822;28;86474;-71
2022/11/01 11:46:23;;;;;;;7.93;1.55;;;20.60;75.10;;;;;;4877904;28;87416;-70
2022/11/01 11:49:03;;;;;;;7.55;1.67;;;20.60;72.90;;;;;;4881568;28;86251;-71
2022/11/01 11:51:36;;;;;;;7.53;1.88;;;20.70;72.80;;;;;;4879205;28;86327;-71
2022/11/01 11:54:07;;;;;;;8.25;2.00;;;20.60;73.40;;;;;;4880789;28;86616;-71
2022/11/01 11:56:33;;;;;;;7.07;1.85;;;20.60;74.60;;;;;;4867595;28;86889;-70
2022/11/01 11:59:05;;;;;;;7.00;1.80;;;20.70;74.80;;;;;;4882515;28;88071;-71
2022/11/01 12:01:33;;;;;;;6.18;1.80;;;20.60;76.40;;;;;;4883368;28;86743;-71
2022/11/01 12:04:12;;;;;;;5.50;2.20;;;20.60;74.60;;;;;;4878227;28;88138;-70
2022/11/01 12:06:43;;;;;;;7.32;1.67;;;20.70;76.30;;;;;;4882698;28;87188;-72
2022/11/01 12:09:46;;;;;;;7.03;2.03;;;20.70;77.90;;;;;;4875461;28;86897;-70
2022/11/01 12:12:25;;;;;;;6.63;1.08;;;20.70;74.10;;;;;;4882486;28;86321;-72
2022/11/01 12:14:52;;;;;;;4.63;1.38;;;20.70;73.40;;;;;;4881604;28;87074;-71
2022/11/01 12:17:27;;;;;;;4.97;1.20;;;20.70;73.10;;;;;;4878538;28;86848;-70
2022/11/01 12:20:32;;;;;;;5.15;1.95;;;20.60;72.20;;;;;;4876269;28;86539;-72
2022/11/01 12:23:09;;;;;;;6.72;1.33;;;20.50;71.70;;;;;;4843848;28;86759;-72
2022/11/01 12:25:36;;;;;;;8.13;1.55;;;20.30;72.10;;;;;;4878493;28;88068;-71
2022/11/01 12:28:12;;;;;;;7.25;2.13;;;20.30;72.20;;;;;;4879712;28;88043;-71
2022/11/01 12:30:40;;;;;;;4.93;1.50;;;20.30;72.60;;;;;;4876121;28;86214;-72
2022/11/01 12:33:29;;;;;;;7.00;1.38;;;20.20;71.70;;;;;;4880238;28;87255;-73
2022/11/01 12:35:57;;;;;;;7.03;1.35;;;20.10;72.00;;;;;;4879624;28;87636;-75
2022/11/01 12:38:54;;;;;;;6.28;1.38;;;20.00;72.40;;;;;;4879443;28;87374;-72
2022/11/01 12:41:23;;;;;;;9.55;1.17;;;20.00;72.30;;;;;;4881721;28;86248;-71
2022/11/01 12:44:26;;;;;;;6.65;1.02;;;20.00;72.30;;;;;;4882242;28;86165;-73
2022/11/01 12:47:23;;;;;;;8.68;1.58;;;20.00;71.70;;;;;;4879507;28;87166;-72
2022/11/01 12:49:57;;;;;;;7.68;1.75;;;20.00;72.40;;;;;;4878665;28;86496;-73
2022/11/01 12:52:36;;;;;;;6.60;1.33;;;20.00;72.70;;;;;;4875912;28;87278;-72
2022/11/01 12:55:11;;;;;;;7.88;2.95;;;19.90;72.40;;;;;;4878751;28;86843;-72
2022/11/01 12:57:38;;;;;;;12.52;4.85;;;20.00;71.90;;;;;;4878617;28;87333;-71
2022/11/01 13:00:05;;;;;;;6.75;2.33;;;19.90;72.20;;;;;;4879163;28;86983;-72
2022/11/01 13:02:55;;;;;;;8.35;1.67;;;19.90;72.50;;;;;;4881974;28;86727;-72
2022/11/01 13:05:27;;;;;;;8.23;1.48;;;19.90;72.00;;;;;;4879577;28;86319;-71
2022/11/01 13:08:15;;;;;;;7.63;1.60;;;19.90;72.10;;;;;;4880809;28;87171;-72
2022/11/01 13:10:46;;;;;;;11.02;1.85;;;19.80;71.40;;;;;;4875607;28;87138;-73
2022/11/01 13:13:20;;;;;;;13.15;2.63;;;19.80;72.30;;;;;;4869439;28;86945;-71
2022/11/01 13:16:03;;;;;;;4.82;1.05;;;19.80;72.40;;;;;;4872012;28;86599;-72
2022/11/01 13:18:50;;;;;;;8.57;2.00;;;19.70;72.70;;;;;;4874129;28;88465;-71
2022/11/01 13:21:34;;;;;;;6.47;1.70;;;19.70;73.10;;;;;;4879492;28;88469;-73
2022/11/01 13:24:24;;;;;;;10.48;1.95;;;19.80;73.60;;;;;;4877823;28;86712;-72
2022/11/01 13:27:14;;;;;;;6.28;1.42;;;19.70;73.60;;;;;;4882416;28;87087;-71
2022/11/01 13:29:55;;;;;;;10.15;2.38;;;19.70;73.00;;;;;;4874347;28;89846;-71
2022/11/01 13:32:41;;;;;;;10.57;1.35;;;19.70;73.50;;;;;;4880414;28;87514;-71
2022/11/01 13:35:36;;;;;;;8.77;2.50;;;19.70;73.20;;;;;;4881118;28;86943;-70
2022/11/01 13:38:22;;;;;;;6.85;1.73;;;19.70;74.10;;;;;;4881073;28;85618;-72
2022/11/01 13:41:07;;;;;;;6.60;1.80;;;19.70;73.80;;;;;;4875672;28;87105;-71
2022/11/01 13:43:41;;;;;;;9.48;1.27;;;19.60;73.30;;;;;;4880010;28;87022;-72
2022/11/01 13:46:25;;;;;;;9.27;2.10;;;19.60;73.50;;;;;;4878123;28;88450;-71
2022/11/01 13:49:04;;;;;;;10.48;2.17;;;19.50;73.20;;;;;;4878399;28;86434;-71
2022/11/01 13:51:41;;;;;;;6.25;1.33;;;19.50;73.20;;;;;;4879180;28;86771;-71
2022/11/01 13:54:55;;;;;;;10.65;1.77;;;19.40;72.70;;;;;;4871905;28;86314;-71
2022/11/01 13:57:26;;;;;;;6.90;1.23;;;19.40;73.30;;;;;;4860645;28;86478;-71
2022/11/01 13:59:54;;;;;;;8.85;2.92;;;19.40;73.10;;;;;;4865203;28;86315;-71
2022/11/01 14:02:23;;;;;;;9.73;2.05;;;19.30;73.60;;;;;;4864986;28;87321;-71
2022/11/01 14:04:59;;;;;;;6.32;1.55;;;19.30;74.10;;;;;;4874370;28;86824;-71
2022/11/01 14:07:44;;;;;;;9.45;1.75;;;19.30;74.60;;;;;;4871060;28;87018;-72
2022/11/01 14:10:16;;;;;;;6.13;1.85;;;19.30;75.00;;;;;;4858779;28;86398;-71
2022/11/01 14:13:06;;;;;;;8.23;2.08;;;19.20;75.70;;;;;;4875683;28;88282;-72
2022/11/01 14:15:38;;;;;;;9.27;1.92;;;19.10;75.90;;;;;;4876582;28;87911;-71
2022/11/01 14:18:09;;;;;;;6.22;1.85;;;19.10;76.00;;;;;;4880593;28;86674;-71
2022/11/01 14:20:39;;;;;;;8.57;1.98;;;19.10;76.10;;;;;;4876829;28;86913;-71
2022/11/01 14:23:26;;;;;;;9.82;2.25;;;19.20;76.60;;;;;;4882959;28;87772;-71
2022/11/01 14:26:24;;;;;;;11.52;2.30;;;19.20;75.80;;;;;;4880080;28;86968;-71
2022/11/01 14:28:57;;;;;;;8.55;1.88;;;19.30;76.00;;;;;;4872812;28;87142;-70
2022/11/01 14:31:30;;;;;;;6.38;1.02;;;19.40;75.40;;;;;;4880147;28;86306;-73
2022/11/01 14:33:59;;;;;;;5.28;1.13;;;19.40;74.60;;;;;;4882296;28;87056;-75
2022/11/01 14:36:28;;;;;;;4.70;0.60;;;19.50;74.80;;;;;;4879395;28;86633;-71
2022/11/01 14:39:26;;;;;;;5.28;0.95;;;19.50;74.30;;;;;;4881230;28;87771;-71
2022/11/01 14:41:54;;;;;;;6.68;1.02;;;19.50;74.80;;;;;;4876440;28;86595;-72
2022/11/01 14:44:28;;;;;;;6.38;1.13;;;19.70;76.00;;;;;;4882600;28;87242;-71
2022/11/01 14:46:57;;;;;;;6.43;1.10;;;19.70;75.40;;;;;;4876544;28;87424;-71
2022/11/01 14:49:32;;;;;;;5.82;1.60;;;19.90;74.90;;;;;;4879950;28;87529;-71
2022/11/01 14:52:04;;;;;;;5.88;1.30;;;19.90;75.60;;;;;;4874380;28;86546;-74
2022/11/01 14:54:48;;;;;;;8.10;1.60;;;19.80;74.90;;;;;;4868715;28;87023;-72
2022/11/01 14:57:40;;;;;;;8.68;1.48;;;19.70;74.10;;;;;;4871146;28;87182;-71
2022/11/01 15:00:28;;;;;;;10.95;2.13;;;19.70;73.50;;;;;;4865016;28;87114;-72
2022/11/01 15:02:56;;;;;;;11.93;2.10;;;19.60;73.10;;;;;;4873103;28;88214;-71
2022/11/01 15:05:22;;;;;;;8.25;1.98;;;19.60;73.60;;;;;;4867636;28;88175;-72
2022/11/01 15:07:53;;;;;;;6.57;1.15;;;19.70;74.50;;;;;;4877224;28;87115;-72
2022/11/01 15:10:20;;;;;;;3.92;1.08;;;19.70;73.60;;;;;;4873708;28;86555;-72
2022/11/01 15:12:59;;;;;;;7.05;0.93;;;19.70;73.40;;;;;;4876249;28;87861;-71
2022/11/01 15:15:28;;;;;;;7.13;0.98;;;19.60;73.60;;;;;;4866729;28;87611;-71
2022/11/01 15:18:11;;;;;;;7.20;1.38;;;19.50;75.20;;;;;;4875101;28;87124;-71
2022/11/01 15:20:40;;;;;;;5.25;1.50;;;19.40;74.90;;;;;;4874508;28;86745;-71
2022/11/01 15:23:19;;;;;;;7.75;1.10;;;19.20;75.60;;;;;;4872973;28;86018;-72
2022/11/01 15:25:52;;;;;;;7.35;2.17;;;19.10;76.00;;;;;;4873112;28;87165;-72
2022/11/01 15:28:24;;;;;;;8.70;1.92;;;19.00;76.60;;;;;;4866414;28;87148;-71
2022/11/01 15:31:01;;;;;;;11.07;2.17;;;18.90;76.40;;;;;;4851062;28;88408;-74
2022/11/01 15:33:31;;;;;;;6.25;1.85;;;18.70;77.10;;;;;;4871000;28;87218;-72
2022/11/01 15:36:28;;;;;;;6.13;1.70;;;18.60;77.20;;;;;;4870100;28;88232;-71
2022/11/01 15:38:57;;;;;;;8.60;1.65;;;18.50;78.30;;;;;;4860888;28;86819;-72
2022/11/01 15:41:27;;;;;;;6.50;0.95;;;18.30;78.20;;;;;;4881594;28;86977;-72
2022/11/01 15:43:58;;;;;;;7.90;1.25;;;18.20;78.40;;;;;;4878361;28;86478;-72
2022/11/01 15:46:38;;;;;;;6.35;1.08;;;18.10;78.90;;;;;;4876343;28;87075;-71
2022/11/01 15:49:16;;;;;;;9.65;1.58;;;18.00;79.30;;;;;;4880985;28;86029;-72
2022/11/01 15:51:49;;;;;;;8.88;1.30;;;17.90;79.50;;;;;;4879504;28;86312;-72
2022/11/01 15:54:33;;;;;;;5.57;1.50;;;17.90;79.70;;;;;;4874831;28;87724;-71
2022/11/01 15:57:02;;;;;;;6.40;1.10;;;17.80;80.40;;;;;;4874977;28;87442;-72
2022/11/01 15:59:44;;;;;;;8.23;1.13;;;17.80;80.50;;;;;;4881008;28;87325;-72
2022/11/01 16:02:21;;;;;;;8.20;1.60;;;17.70;82.10;;;;;;4877877;28;86332;-72
2022/11/01 16:04:48;;;;;;;6.40;1.70;;;17.70;83.20;;;;;;4879213;28;86659;-72
2022/11/01 16:07:19;;;;;;;8.90;1.38;;;17.70;83.00;;;;;;4875750;28;86374;-72
2022/11/01 16:09:54;;;;;;;10.85;2.65;;;17.60;83.00;;;;;;4880472;28;86542;-72
2022/11/01 16:12:30;;;;;;;10.50;1.70;;;17.50;83.20;;;;;;4881184;28;86745;-71
2022/11/01 16:15:05;;;;;;;7.78;2.10;;;17.50;84.00;;;;;;4882105;28;86304;-72
2022/11/01 16:17:38;;;;;;;6.30;1.60;;;17.50;83.70;;;;;;4879102;28;86596;-71
2022/11/01 16:20:32;;;;;;;7.82;1.65;;;17.40;83.00;;;;;;4875387;28;87346;-72
2022/11/01 16:23:00;;;;;;;8.13;1.88;;;17.30;84.50;;;;;;4880211;28;87934;-72
2022/11/01 16:25:29;;;;;;;8.30;1.90;;;17.20;85.50;;;;;;4880382;28;86969;-72
2022/11/01 16:28:02;;;;;;;7.40;1.70;;;17.20;85.30;;;;;;4877903;28;87414;-73
2022/11/01 16:30:47;;;;;;;12.23;2.13;;;17.20;85.70;;;;;;4879979;28;86951;-71
2022/11/01 16:33:27;;;;;;;6.80;2.15;;;17.20;86.20;;;;;;4874263;28;87173;-71
2022/11/01 16:36:03;;;;;;;10.70;2.38;;;17.20;86.30;;;;;;4875202;28;86279;-71
2022/11/01 16:38:31;;;;;;;9.95;2.00;;;17.20;86.60;;;;;;4877037;28;87301;-72
2022/11/01 16:40:59;;;;;;;8.52;2.30;;;17.10;86.50;;;;;;4879303;28;86222;-73
2022/11/01 16:43:27;;;;;;;20.25;7.63;;;17.20;86.70;;;;;;4876650;28;87122;-73
2022/11/01 16:45:53;;;;;;;16.95;6.10;;;17.20;86.50;;;;;;4878855;28;87191;-72
2022/11/01 16:48:26;;;;;;;17.75;6.97;;;17.20;86.20;;;;;;4879673;28;88002;-72
2022/11/01 16:50:54;;;;;;;12.73;4.20;;;17.10;87.10;;;;;;4876556;28;87182;-70
2022/11/01 16:53:23;;;;;;;11.95;4.22;;;17.10;87.60;;;;;;4877966;28;86936;-72
2022/11/01 16:55:49;;;;;;;12.63;3.67;;;17.10;89.10;;;;;;4872456;28;86488;-72